sensor_id;sensor_type;location;lat;lon;timestamp;P1;durP1;ratioP1;P2;durP2;ratioP2
39994;SDS011;25686;51.908;10.418;2024-01-27T00:00:43;18.03;;;3.13;;
39994;SDS011;25686;51.908;10.418;2024-01-27T00:02:44;18.90;;;2.30;;
39994;SDS011;25686;51.908;10.418;2024-01-27T00:04:45;18.37;;;2.47;;
39994;SDS011;25686;51.908;10.418;2024-01-27T00:06:46;15.70;;;2.00;;
39994;SDS011;25686;51.908;10.418;2024-01-27T00:08:47;21.87;;;2.43;;
39994;SDS011;25686;51.908;10.418;2024-01-27T00:10:48;19.63;;;2.63;;
39994;SDS011;25686;51.908;10.418;2024-01-27T00:12:49;22.43;;;2.60;;
39994;SDS011;25686;51.908;10.418;2024-01-27T00:14:50;20.13;;;2.73;;
39994;SDS011;25686;51.908;10.418;2024-01-27T00:16:51;14.53;;;2.33;;
39994;SDS011;25686;51.908;10.418;2024-01-27T00:18:52;19.40;;;2.73;;
39994;SDS011;25686;51.908;10.418;2024-01-27T00:20:53;16.80;;;2.10;;
39994;SDS011;25686;51.908;10.418;2024-01-27T00:22:54;20.50;;;2.00;;
39994;SDS011;25686;51.908;10.418;2024-01-27T00:24:55;17.60;;;2.87;;
39994;SDS011;25686;51.908;10.418;2024-01-27T00:26:56;16.23;;;2.80;;
39994;SDS011;25686;51.908;10.418;2024-01-27T00:28:57;16.03;;;2.17;;
39994;SDS011;25686;51.908;10.418;2024-01-27T00:30:58;19.87;;;2.00;;
39994;SDS011;25686;51.908;10.418;2024-01-27T00:32:59;29.37;;;2.73;;
39994;SDS011;25686;51.908;10.418;2024-01-27T00:35:00;14.53;;;2.00;;
39994;SDS011;25686;51.908;10.418;2024-01-27T00:37:01;16.90;;;2.43;;
39994;SDS011;25686;51.908;10.418;2024-01-27T00:39:02;18.27;;;2.30;;
39994;SDS011;25686;51.908;10.418;2024-01-27T00:41:03;15.03;;;2.00;;
39994;SDS011;25686;51.908;10.418;2024-01-27T00:43:04;15.33;;;2.20;;
39994;SDS011;25686;51.908;10.418;2024-01-27T00:45:06;18.13;;;2.40;;
39994;SDS011;25686;51.908;10.418;2024-01-27T00:47:07;14.97;;;2.10;;
39994;SDS011;25686;51.908;10.418;2024-01-27T00:49:08;22.40;;;2.47;;
39994;SDS011;25686;51.908;10.418;2024-01-27T00:51:09;16.20;;;2.47;;
39994;SDS011;25686;51.908;10.418;2024-01-27T00:53:10;22.97;;;2.70;;
39994;SDS011;25686;51.908;10.418;2024-01-27T00:55:11;16.73;;;2.77;;
39994;SDS011;25686;51.908;10.418;2024-01-27T00:57:11;16.17;;;2.37;;
39994;SDS011;25686;51.908;10.418;2024-01-27T00:59:12;18.60;;;2.57;;
39994;SDS011;25686;51.908;10.418;2024-01-27T01:01:13;18.27;;;2.87;;
39994;SDS011;25686;51.908;10.418;2024-01-27T01:03:15;19.50;;;2.63;;
39994;SDS011;25686;51.908;10.418;2024-01-27T01:05:15;14.83;;;2.30;;
39994;SDS011;25686;51.908;10.418;2024-01-27T01:07:16;19.43;;;2.30;;
39994;SDS011;25686;51.908;10.418;2024-01-27T01:09:17;13.60;;;2.03;;
39994;SDS011;25686;51.908;10.418;2024-01-27T01:11:18;20.53;;;2.23;;
39994;SDS011;25686;51.908;10.418;2024-01-27T01:13:19;18.80;;;2.47;;
39994;SDS011;25686;51.908;10.418;2024-01-27T01:15:20;18.37;;;2.37;;
39994;SDS011;25686;51.908;10.418;2024-01-27T01:17:21;18.27;;;2.77;;
39994;SDS011;25686;51.908;10.418;2024-01-27T01:19:23;16.40;;;2.47;;
39994;SDS011;25686;51.908;10.418;2024-01-27T01:21:23;16.33;;;2.53;;
39994;SDS011;25686;51.908;10.418;2024-01-27T01:23:24;19.63;;;2.23;;
39994;SDS011;25686;51.908;10.418;2024-01-27T01:25:25;22.67;;;3.67;;
39994;SDS011;25686;51.908;10.418;2024-01-27T01:27:26;16.97;;;2.47;;
39994;SDS011;25686;51.908;10.418;2024-01-27T01:29:27;23.80;;;3.10;;
39994;SDS011;25686;51.908;10.418;2024-01-27T01:31:28;17.67;;;2.40;;
39994;SDS011;25686;51.908;10.418;2024-01-27T01:33:29;21.80;;;2.50;;
39994;SDS011;25686;51.908;10.418;2024-01-27T01:35:30;20.37;;;2.67;;
39994;SDS011;25686;51.908;10.418;2024-01-27T01:37:31;17.47;;;2.53;;
39994;SDS011;25686;51.908;10.418;2024-01-27T01:39:32;18.93;;;2.70;;
39994;SDS011;25686;51.908;10.418;2024-01-27T01:41:33;17.77;;;2.50;;
39994;SDS011;25686;51.908;10.418;2024-01-27T01:43:34;22.43;;;2.90;;
39994;SDS011;25686;51.908;10.418;2024-01-27T01:45:35;24.17;;;2.93;;
39994;SDS011;25686;51.908;10.418;2024-01-27T01:47:35;16.10;;;2.30;;
39994;SDS011;25686;51.908;10.418;2024-01-27T01:49:36;17.37;;;2.73;;
39994;SDS011;25686;51.908;10.418;2024-01-27T01:51:38;22.77;;;2.93;;
39994;SDS011;25686;51.908;10.418;2024-01-27T01:53:39;25.23;;;2.73;;
39994;SDS011;25686;51.908;10.418;2024-01-27T01:55:40;21.33;;;2.63;;
39994;SDS011;25686;51.908;10.418;2024-01-27T01:57:41;17.47;;;2.70;;
39994;SDS011;25686;51.908;10.418;2024-01-27T01:59:43;19.97;;;2.50;;
39994;SDS011;25686;51.908;10.418;2024-01-27T02:01:44;21.67;;;3.07;;
39994;SDS011;25686;51.908;10.418;2024-01-27T02:03:51;24.47;;;2.73;;
39994;SDS011;25686;51.908;10.418;2024-01-27T02:05:52;22.27;;;2.50;;
39994;SDS011;25686;51.908;10.418;2024-01-27T02:07:53;16.37;;;2.40;;
39994;SDS011;25686;51.908;10.418;2024-01-27T02:09:56;16.73;;;2.67;;
39994;SDS011;25686;51.908;10.418;2024-01-27T02:11:57;23.17;;;2.50;;
39994;SDS011;25686;51.908;10.418;2024-01-27T02:13:58;17.30;;;2.83;;
39994;SDS011;25686;51.908;10.418;2024-01-27T02:15:59;15.93;;;2.50;;
39994;SDS011;25686;51.908;10.418;2024-01-27T02:18:00;25.50;;;3.53;;
39994;SDS011;25686;51.908;10.418;2024-01-27T02:20:00;21.73;;;3.07;;
39994;SDS011;25686;51.908;10.418;2024-01-27T02:22:02;19.37;;;2.10;;
39994;SDS011;25686;51.908;10.418;2024-01-27T02:24:06;16.47;;;2.60;;
39994;SDS011;25686;51.908;10.418;2024-01-27T02:26:07;16.20;;;2.73;;
39994;SDS011;25686;51.908;10.418;2024-01-27T02:28:08;21.27;;;2.63;;
39994;SDS011;25686;51.908;10.418;2024-01-27T02:30:09;19.47;;;2.60;;
39994;SDS011;25686;51.908;10.418;2024-01-27T02:32:10;13.30;;;2.63;;
39994;SDS011;25686;51.908;10.418;2024-01-27T02:34:11;16.03;;;2.70;;
39994;SDS011;25686;51.908;10.418;2024-01-27T02:36:12;17.90;;;2.47;;
39994;SDS011;25686;51.908;10.418;2024-01-27T02:38:13;18.63;;;2.87;;
39994;SDS011;25686;51.908;10.418;2024-01-27T02:40:14;18.40;;;3.03;;
39994;SDS011;25686;51.908;10.418;2024-01-27T02:42:14;15.80;;;2.90;;
39994;SDS011;25686;51.908;10.418;2024-01-27T02:44:15;24.33;;;3.10;;
39994;SDS011;25686;51.908;10.418;2024-01-27T02:46:16;13.27;;;2.43;;
39994;SDS011;25686;51.908;10.418;2024-01-27T02:48:18;16.50;;;2.83;;
39994;SDS011;25686;51.908;10.418;2024-01-27T02:50:19;27.77;;;3.40;;
39994;SDS011;25686;51.908;10.418;2024-01-27T02:52:20;24.93;;;3.37;;
39994;SDS011;25686;51.908;10.418;2024-01-27T02:54:21;28.33;;;3.00;;
39994;SDS011;25686;51.908;10.418;2024-01-27T02:56:22;18.63;;;2.90;;
39994;SDS011;25686;51.908;10.418;2024-01-27T02:58:23;17.43;;;2.30;;
39994;SDS011;25686;51.908;10.418;2024-01-27T03:00:24;18.57;;;2.23;;
39994;SDS011;25686;51.908;10.418;2024-01-27T03:02:25;14.87;;;2.40;;
39994;SDS011;25686;51.908;10.418;2024-01-27T03:04:26;26.07;;;3.00;;
39994;SDS011;25686;51.908;10.418;2024-01-27T03:06:27;23.40;;;3.57;;
39994;SDS011;25686;51.908;10.418;2024-01-27T03:08:28;20.37;;;3.23;;
39994;SDS011;25686;51.908;10.418;2024-01-27T03:10:29;23.00;;;3.23;;
39994;SDS011;25686;51.908;10.418;2024-01-27T03:12:31;25.97;;;3.60;;
39994;SDS011;25686;51.908;10.418;2024-01-27T03:14:32;27.47;;;3.07;;
39994;SDS011;25686;51.908;10.418;2024-01-27T03:16:33;22.43;;;3.70;;
39994;SDS011;25686;51.908;10.418;2024-01-27T03:18:35;19.00;;;3.00;;
39994;SDS011;25686;51.908;10.418;2024-01-27T03:20:37;28.47;;;3.40;;
39994;SDS011;25686;51.908;10.418;2024-01-27T03:22:38;30.23;;;3.33;;
39994;SDS011;25686;51.908;10.418;2024-01-27T03:24:40;24.10;;;3.07;;
39994;SDS011;25686;51.908;10.418;2024-01-27T03:26:41;22.77;;;3.10;;
39994;SDS011;25686;51.908;10.418;2024-01-27T03:28:42;17.00;;;3.43;;
39994;SDS011;25686;51.908;10.418;2024-01-27T03:30:43;26.27;;;3.43;;
39994;SDS011;25686;51.908;10.418;2024-01-27T03:32:44;22.57;;;3.50;;
39994;SDS011;25686;51.908;10.418;2024-01-27T03:34:45;24.40;;;3.47;;
39994;SDS011;25686;51.908;10.418;2024-01-27T03:36:49;22.60;;;3.33;;
39994;SDS011;25686;51.908;10.418;2024-01-27T03:38:50;26.63;;;3.47;;
39994;SDS011;25686;51.908;10.418;2024-01-27T03:40:50;20.07;;;3.30;;
39994;SDS011;25686;51.908;10.418;2024-01-27T03:42:51;23.30;;;3.60;;
39994;SDS011;25686;51.908;10.418;2024-01-27T03:44:52;21.57;;;3.47;;
39994;SDS011;25686;51.908;10.418;2024-01-27T03:46:53;21.73;;;3.57;;
39994;SDS011;25686;51.908;10.418;2024-01-27T03:48:54;31.63;;;3.87;;
39994;SDS011;25686;51.908;10.418;2024-01-27T03:50:56;18.43;;;3.17;;
39994;SDS011;25686;51.908;10.418;2024-01-27T03:52:57;17.87;;;3.27;;
39994;SDS011;25686;51.908;10.418;2024-01-27T03:54:58;27.43;;;4.30;;
39994;SDS011;25686;51.908;10.418;2024-01-27T03:56:59;25.80;;;3.87;;
39994;SDS011;25686;51.908;10.418;2024-01-27T03:59:00;22.23;;;4.10;;
39994;SDS011;25686;51.908;10.418;2024-01-27T04:01:01;29.60;;;3.63;;
39994;SDS011;25686;51.908;10.418;2024-01-27T04:03:02;21.53;;;4.10;;
39994;SDS011;25686;51.908;10.418;2024-01-27T04:05:03;23.80;;;4.57;;
39994;SDS011;25686;51.908;10.418;2024-01-27T04:07:04;25.20;;;3.53;;
39994;SDS011;25686;51.908;10.418;2024-01-27T04:09:05;23.50;;;3.73;;
39994;SDS011;25686;51.908;10.418;2024-01-27T04:11:09;22.83;;;3.63;;
39994;SDS011;25686;51.908;10.418;2024-01-27T04:13:10;26.10;;;4.03;;
39994;SDS011;25686;51.908;10.418;2024-01-27T04:15:11;28.50;;;3.73;;
39994;SDS011;25686;51.908;10.418;2024-01-27T04:17:12;20.10;;;3.57;;
39994;SDS011;25686;51.908;10.418;2024-01-27T04:19:13;26.50;;;3.60;;
39994;SDS011;25686;51.908;10.418;2024-01-27T04:21:14;20.13;;;3.70;;
39994;SDS011;25686;51.908;10.418;2024-01-27T04:23:15;23.77;;;4.30;;
39994;SDS011;25686;51.908;10.418;2024-01-27T04:25:16;22.90;;;4.13;;
39994;SDS011;25686;51.908;10.418;2024-01-27T04:27:17;21.53;;;4.07;;
39994;SDS011;25686;51.908;10.418;2024-01-27T04:29:18;25.90;;;3.80;;
39994;SDS011;25686;51.908;10.418;2024-01-27T04:31:19;25.67;;;3.80;;
39994;SDS011;25686;51.908;10.418;2024-01-27T04:33:19;27.20;;;3.60;;
39994;SDS011;25686;51.908;10.418;2024-01-27T04:35:20;25.30;;;3.83;;
39994;SDS011;25686;51.908;10.418;2024-01-27T04:37:21;27.50;;;4.77;;
39994;SDS011;25686;51.908;10.418;2024-01-27T04:39:22;22.83;;;3.53;;
39994;SDS011;25686;51.908;10.418;2024-01-27T04:41:23;24.27;;;4.73;;
39994;SDS011;25686;51.908;10.418;2024-01-27T04:43:24;26.97;;;4.30;;
39994;SDS011;25686;51.908;10.418;2024-01-27T04:45:25;24.90;;;4.20;;
39994;SDS011;25686;51.908;10.418;2024-01-27T04:47:27;21.93;;;3.70;;
39994;SDS011;25686;51.908;10.418;2024-01-27T04:49:28;25.03;;;4.17;;
39994;SDS011;25686;51.908;10.418;2024-01-27T04:51:28;28.73;;;4.23;;
39994;SDS011;25686;51.908;10.418;2024-01-27T04:53:29;33.53;;;4.43;;
39994;SDS011;25686;51.908;10.418;2024-01-27T04:55:30;24.37;;;3.70;;
39994;SDS011;25686;51.908;10.418;2024-01-27T04:57:31;24.03;;;4.30;;
39994;SDS011;25686;51.908;10.418;2024-01-27T04:59:32;26.13;;;4.13;;
39994;SDS011;25686;51.908;10.418;2024-01-27T05:01:33;21.40;;;4.07;;
39994;SDS011;25686;51.908;10.418;2024-01-27T05:03:34;29.40;;;4.17;;
39994;SDS011;25686;51.908;10.418;2024-01-27T05:05:36;22.50;;;4.00;;
39994;SDS011;25686;51.908;10.418;2024-01-27T05:07:37;30.30;;;4.13;;
39994;SDS011;25686;51.908;10.418;2024-01-27T05:09:38;25.00;;;4.60;;
39994;SDS011;25686;51.908;10.418;2024-01-27T05:11:39;23.53;;;4.00;;
39994;SDS011;25686;51.908;10.418;2024-01-27T05:13:42;27.97;;;4.23;;
39994;SDS011;25686;51.908;10.418;2024-01-27T05:15:43;22.97;;;4.50;;
39994;SDS011;25686;51.908;10.418;2024-01-27T05:17:44;26.63;;;5.17;;
39994;SDS011;25686;51.908;10.418;2024-01-27T05:19:45;31.40;;;4.83;;
39994;SDS011;25686;51.908;10.418;2024-01-27T05:21:46;29.73;;;4.97;;
39994;SDS011;25686;51.908;10.418;2024-01-27T05:23:47;17.03;;;4.20;;
39994;SDS011;25686;51.908;10.418;2024-01-27T05:25:48;22.00;;;4.53;;
39994;SDS011;25686;51.908;10.418;2024-01-27T05:27:49;28.93;;;4.53;;
39994;SDS011;25686;51.908;10.418;2024-01-27T05:29:50;29.47;;;5.00;;
39994;SDS011;25686;51.908;10.418;2024-01-27T05:31:51;28.63;;;4.30;;
39994;SDS011;25686;51.908;10.418;2024-01-27T05:33:52;31.67;;;5.10;;
39994;SDS011;25686;51.908;10.418;2024-01-27T05:35:53;20.83;;;4.60;;
39994;SDS011;25686;51.908;10.418;2024-01-27T05:37:54;27.67;;;5.27;;
39994;SDS011;25686;51.908;10.418;2024-01-27T05:39:55;23.43;;;4.53;;
39994;SDS011;25686;51.908;10.418;2024-01-27T05:41:56;24.17;;;4.80;;
39994;SDS011;25686;51.908;10.418;2024-01-27T05:43:56;28.43;;;5.40;;
39994;SDS011;25686;51.908;10.418;2024-01-27T05:45:57;24.73;;;4.70;;
39994;SDS011;25686;51.908;10.418;2024-01-27T05:47:59;28.47;;;4.97;;
39994;SDS011;25686;51.908;10.418;2024-01-27T05:50:00;27.63;;;4.73;;
39994;SDS011;25686;51.908;10.418;2024-01-27T05:52:01;22.60;;;4.90;;
39994;SDS011;25686;51.908;10.418;2024-01-27T05:54:02;24.07;;;4.97;;
39994;SDS011;25686;51.908;10.418;2024-01-27T05:56:03;26.63;;;5.30;;
39994;SDS011;25686;51.908;10.418;2024-01-27T05:58:04;24.27;;;4.90;;
39994;SDS011;25686;51.908;10.418;2024-01-27T06:00:05;30.47;;;5.20;;
39994;SDS011;25686;51.908;10.418;2024-01-27T06:02:06;30.17;;;4.63;;
39994;SDS011;25686;51.908;10.418;2024-01-27T06:04:07;23.70;;;4.73;;
39994;SDS011;25686;51.908;10.418;2024-01-27T06:06:08;27.90;;;4.37;;
39994;SDS011;25686;51.908;10.418;2024-01-27T06:08:09;19.87;;;4.33;;
39994;SDS011;25686;51.908;10.418;2024-01-27T06:10:10;22.17;;;4.90;;
39994;SDS011;25686;51.908;10.418;2024-01-27T06:12:11;22.47;;;4.60;;
39994;SDS011;25686;51.908;10.418;2024-01-27T06:14:11;17.70;;;3.67;;
39994;SDS011;25686;51.908;10.418;2024-01-27T06:16:12;23.80;;;4.50;;
39994;SDS011;25686;51.908;10.418;2024-01-27T06:18:13;28.07;;;4.93;;
39994;SDS011;25686;51.908;10.418;2024-01-27T06:20:14;26.73;;;5.10;;
39994;SDS011;25686;51.908;10.418;2024-01-27T06:22:18;24.57;;;4.63;;
39994;SDS011;25686;51.908;10.418;2024-01-27T06:24:19;22.53;;;4.53;;
39994;SDS011;25686;51.908;10.418;2024-01-27T06:26:20;21.63;;;4.60;;
39994;SDS011;25686;51.908;10.418;2024-01-27T06:28:21;36.13;;;5.17;;
39994;SDS011;25686;51.908;10.418;2024-01-27T06:30:22;21.70;;;4.10;;
39994;SDS011;25686;51.908;10.418;2024-01-27T06:32:23;20.00;;;4.20;;
39994;SDS011;25686;51.908;10.418;2024-01-27T06:34:24;27.37;;;5.00;;
39994;SDS011;25686;51.908;10.418;2024-01-27T06:36:25;25.63;;;5.70;;
39994;SDS011;25686;51.908;10.418;2024-01-27T06:38:27;24.40;;;5.33;;
39994;SDS011;25686;51.908;10.418;2024-01-27T06:40:28;22.93;;;5.13;;
39994;SDS011;25686;51.908;10.418;2024-01-27T06:42:29;23.80;;;4.83;;
39994;SDS011;25686;51.908;10.418;2024-01-27T06:44:30;26.40;;;4.87;;
39994;SDS011;25686;51.908;10.418;2024-01-27T06:46:31;23.23;;;4.67;;
39994;SDS011;25686;51.908;10.418;2024-01-27T06:48:32;32.73;;;5.27;;
39994;SDS011;25686;51.908;10.418;2024-01-27T06:50:33;22.93;;;4.43;;
39994;SDS011;25686;51.908;10.418;2024-01-27T06:52:34;27.30;;;4.73;;
39994;SDS011;25686;51.908;10.418;2024-01-27T06:54:35;20.57;;;4.13;;
39994;SDS011;25686;51.908;10.418;2024-01-27T06:56:38;23.27;;;4.83;;
39994;SDS011;25686;51.908;10.418;2024-01-27T06:58:39;23.30;;;4.77;;
39994;SDS011;25686;51.908;10.418;2024-01-27T07:00:40;27.70;;;4.23;;
39994;SDS011;25686;51.908;10.418;2024-01-27T07:02:41;19.30;;;4.10;;
39994;SDS011;25686;51.908;10.418;2024-01-27T07:04:42;25.17;;;5.00;;
39994;SDS011;25686;51.908;10.418;2024-01-27T07:06:43;23.97;;;4.80;;
39994;SDS011;25686;51.908;10.418;2024-01-27T07:08:44;25.60;;;5.40;;
39994;SDS011;25686;51.908;10.418;2024-01-27T07:10:45;17.30;;;4.57;;
39994;SDS011;25686;51.908;10.418;2024-01-27T07:12:46;21.83;;;4.97;;
39994;SDS011;25686;51.908;10.418;2024-01-27T07:14:47;25.73;;;5.03;;
39994;SDS011;25686;51.908;10.418;2024-01-27T07:16:48;20.30;;;5.20;;
39994;SDS011;25686;51.908;10.418;2024-01-27T07:18:49;25.90;;;5.50;;
39994;SDS011;25686;51.908;10.418;2024-01-27T07:20:50;23.10;;;5.60;;
39994;SDS011;25686;51.908;10.418;2024-01-27T07:22:51;18.43;;;5.33;;
39994;SDS011;25686;51.908;10.418;2024-01-27T07:24:52;19.93;;;5.33;;
39994;SDS011;25686;51.908;10.418;2024-01-27T07:26:53;24.63;;;5.67;;
39994;SDS011;25686;51.908;10.418;2024-01-27T07:28:54;22.53;;;4.93;;
39994;SDS011;25686;51.908;10.418;2024-01-27T07:30:55;22.97;;;5.37;;
39994;SDS011;25686;51.908;10.418;2024-01-27T07:32:56;20.90;;;4.90;;
39994;SDS011;25686;51.908;10.418;2024-01-27T07:34:56;16.07;;;4.73;;
39994;SDS011;25686;51.908;10.418;2024-01-27T07:36:57;22.93;;;5.20;;
39994;SDS011;25686;51.908;10.418;2024-01-27T07:38:58;19.93;;;4.87;;
39994;SDS011;25686;51.908;10.418;2024-01-27T07:40:59;22.03;;;5.37;;
39994;SDS011;25686;51.908;10.418;2024-01-27T07:43:01;22.87;;;5.10;;
39994;SDS011;25686;51.908;10.418;2024-01-27T07:45:03;24.93;;;6.40;;
39994;SDS011;25686;51.908;10.418;2024-01-27T07:47:04;15.73;;;5.10;;
39994;SDS011;25686;51.908;10.418;2024-01-27T07:49:05;19.67;;;4.70;;
39994;SDS011;25686;51.908;10.418;2024-01-27T07:51:06;25.90;;;5.50;;
39994;SDS011;25686;51.908;10.418;2024-01-27T07:53:07;22.53;;;5.20;;
39994;SDS011;25686;51.908;10.418;2024-01-27T07:55:08;23.53;;;5.13;;
39994;SDS011;25686;51.908;10.418;2024-01-27T07:57:10;19.97;;;5.27;;
39994;SDS011;25686;51.908;10.418;2024-01-27T07:59:12;22.23;;;5.07;;
39994;SDS011;25686;51.908;10.418;2024-01-27T08:01:16;17.67;;;4.37;;
39994;SDS011;25686;51.908;10.418;2024-01-27T08:03:17;20.13;;;4.27;;
39994;SDS011;25686;51.908;10.418;2024-01-27T08:05:18;15.50;;;4.30;;
39994;SDS011;25686;51.908;10.418;2024-01-27T08:07:19;18.25;;;4.75;;
39994;SDS011;25686;51.908;10.418;2024-01-27T08:09:20;16.45;;;4.75;;
39994;SDS011;25686;51.908;10.418;2024-01-27T08:11:21;17.77;;;4.72;;
39994;SDS011;25686;51.908;10.418;2024-01-27T08:13:22;20.35;;;4.32;;
39994;SDS011;25686;51.908;10.418;2024-01-27T08:15:23;17.35;;;4.55;;
39994;SDS011;25686;51.908;10.418;2024-01-27T08:17:24;20.65;;;4.60;;
39994;SDS011;25686;51.908;10.418;2024-01-27T08:19:25;17.90;;;4.63;;
39994;SDS011;25686;51.908;10.418;2024-01-27T08:21:26;16.67;;;4.25;;
39994;SDS011;25686;51.908;10.418;2024-01-27T08:23:27;26.65;;;4.78;;
39994;SDS011;25686;51.908;10.418;2024-01-27T08:25:28;20.23;;;4.55;;
39994;SDS011;25686;51.908;10.418;2024-01-27T08:27:29;19.65;;;4.95;;
39994;SDS011;25686;51.908;10.418;2024-01-27T08:29:30;19.80;;;4.57;;
39994;SDS011;25686;51.908;10.418;2024-01-27T08:31:31;10.85;;;4.30;;
39994;SDS011;25686;51.908;10.418;2024-01-27T08:33:31;19.35;;;5.05;;
39994;SDS011;25686;51.908;10.418;2024-01-27T08:35:32;15.57;;;4.70;;
39994;SDS011;25686;51.908;10.418;2024-01-27T08:37:33;13.73;;;4.80;;
39994;SDS011;25686;51.908;10.418;2024-01-27T08:39:38;15.35;;;4.53;;
39994;SDS011;25686;51.908;10.418;2024-01-27T08:41:39;17.80;;;5.22;;
39994;SDS011;25686;51.908;10.418;2024-01-27T08:43:40;19.10;;;4.60;;
39994;SDS011;25686;51.908;10.418;2024-01-27T08:45:41;25.05;;;5.05;;
39994;SDS011;25686;51.908;10.418;2024-01-27T08:47:42;19.30;;;4.68;;
39994;SDS011;25686;51.908;10.418;2024-01-27T08:49:43;19.40;;;4.60;;
39994;SDS011;25686;51.908;10.418;2024-01-27T08:51:44;18.52;;;5.32;;
39994;SDS011;25686;51.908;10.418;2024-01-27T08:53:45;14.50;;;4.57;;
39994;SDS011;25686;51.908;10.418;2024-01-27T08:55:48;17.08;;;4.95;;
39994;SDS011;25686;51.908;10.418;2024-01-27T08:57:49;16.92;;;4.57;;
39994;SDS011;25686;51.908;10.418;2024-01-27T08:59:50;19.65;;;4.53;;
39994;SDS011;25686;51.908;10.418;2024-01-27T09:01:51;16.75;;;4.75;;
39994;SDS011;25686;51.908;10.418;2024-01-27T09:03:52;11.15;;;4.00;;
39994;SDS011;25686;51.908;10.418;2024-01-27T09:05:53;14.25;;;4.75;;
39994;SDS011;25686;51.908;10.418;2024-01-27T09:07:54;14.82;;;4.15;;
39994;SDS011;25686;51.908;10.418;2024-01-27T09:09:55;14.93;;;4.63;;
39994;SDS011;25686;51.908;10.418;2024-01-27T09:11:56;10.98;;;4.82;;
39994;SDS011;25686;51.908;10.418;2024-01-27T09:13:57;14.73;;;5.07;;
39994;SDS011;25686;51.908;10.418;2024-01-27T09:15:58;17.15;;;5.00;;
39994;SDS011;25686;51.908;10.418;2024-01-27T09:17:59;14.18;;;4.60;;
39994;SDS011;25686;51.908;10.418;2024-01-27T09:20:00;14.10;;;5.03;;
39994;SDS011;25686;51.908;10.418;2024-01-27T09:22:01;13.20;;;4.78;;
39994;SDS011;25686;51.908;10.418;2024-01-27T09:24:02;13.45;;;4.78;;
39994;SDS011;25686;51.908;10.418;2024-01-27T09:26:03;12.07;;;5.03;;
39994;SDS011;25686;51.908;10.418;2024-01-27T09:28:04;12.88;;;4.57;;
39994;SDS011;25686;51.908;10.418;2024-01-27T09:30:06;11.52;;;4.72;;
39994;SDS011;25686;51.908;10.418;2024-01-27T09:32:07;13.25;;;4.90;;
39994;SDS011;25686;51.908;10.418;2024-01-27T09:34:08;14.35;;;4.65;;
39994;SDS011;25686;51.908;10.418;2024-01-27T09:36:09;12.07;;;4.88;;
39994;SDS011;25686;51.908;10.418;2024-01-27T09:38:10;15.88;;;5.30;;
39994;SDS011;25686;51.908;10.418;2024-01-27T09:40:12;14.32;;;5.28;;
39994;SDS011;25686;51.908;10.418;2024-01-27T09:42:13;11.13;;;5.28;;
39994;SDS011;25686;51.908;10.418;2024-01-27T09:44:16;12.18;;;5.00;;
39994;SDS011;25686;51.908;10.418;2024-01-27T09:46:19;13.35;;;5.25;;
39994;SDS011;25686;51.908;10.418;2024-01-27T09:48:20;14.02;;;5.00;;
39994;SDS011;25686;51.908;10.418;2024-01-27T09:50:21;20.55;;;5.30;;
39994;SDS011;25686;51.908;10.418;2024-01-27T09:52:22;13.48;;;5.00;;
39994;SDS011;25686;51.908;10.418;2024-01-27T09:54:24;13.93;;;4.30;;
39994;SDS011;25686;51.908;10.418;2024-01-27T09:56:25;15.23;;;4.95;;
39994;SDS011;25686;51.908;10.418;2024-01-27T09:58:26;14.57;;;4.78;;
39994;SDS011;25686;51.908;10.418;2024-01-27T10:00:28;14.60;;;4.53;;
39994;SDS011;25686;51.908;10.418;2024-01-27T10:02:29;13.43;;;4.13;;
39994;SDS011;25686;51.908;10.418;2024-01-27T10:04:30;16.55;;;4.55;;
39994;SDS011;25686;51.908;10.418;2024-01-27T10:06:32;18.23;;;4.88;;
39994;SDS011;25686;51.908;10.418;2024-01-27T10:08:32;17.02;;;4.88;;
39994;SDS011;25686;51.908;10.418;2024-01-27T10:10:34;17.55;;;4.40;;
39994;SDS011;25686;51.908;10.418;2024-01-27T10:12:39;16.88;;;4.80;;
39994;SDS011;25686;51.908;10.418;2024-01-27T10:14:42;15.52;;;4.72;;
39994;SDS011;25686;51.908;10.418;2024-01-27T10:16:48;17.60;;;5.47;;
39994;SDS011;25686;51.908;10.418;2024-01-27T10:18:58;18.50;;;5.20;;
39994;SDS011;25686;51.908;10.418;2024-01-27T10:21:00;17.08;;;4.95;;
39994;SDS011;25686;51.908;10.418;2024-01-27T10:23:11;17.92;;;5.03;;
39994;SDS011;25686;51.908;10.418;2024-01-27T10:25:12;14.93;;;4.80;;
39994;SDS011;25686;51.908;10.418;2024-01-27T10:27:13;23.15;;;5.05;;
39994;SDS011;25686;51.908;10.418;2024-01-27T10:29:14;17.58;;;5.05;;
39994;SDS011;25686;51.908;10.418;2024-01-27T10:31:15;16.95;;;5.35;;
39994;SDS011;25686;51.908;10.418;2024-01-27T10:33:17;18.45;;;5.40;;
39994;SDS011;25686;51.908;10.418;2024-01-27T10:35:18;16.13;;;5.18;;
39994;SDS011;25686;51.908;10.418;2024-01-27T10:37:23;16.77;;;5.10;;
39994;SDS011;25686;51.908;10.418;2024-01-27T10:39:25;16.27;;;5.25;;
39994;SDS011;25686;51.908;10.418;2024-01-27T10:41:25;18.02;;;5.55;;
39994;SDS011;25686;51.908;10.418;2024-01-27T10:43:27;14.80;;;4.57;;
39994;SDS011;25686;51.908;10.418;2024-01-27T10:45:29;21.83;;;5.10;;
39994;SDS011;25686;51.908;10.418;2024-01-27T10:47:33;14.02;;;4.50;;
39994;SDS011;25686;51.908;10.418;2024-01-27T10:49:34;15.93;;;4.07;;
39994;SDS011;25686;51.908;10.418;2024-01-27T10:51:38;16.90;;;3.63;;
39994;SDS011;25686;51.908;10.418;2024-01-27T10:53:41;12.35;;;3.85;;
39994;SDS011;25686;51.908;10.418;2024-01-27T10:55:43;15.73;;;3.65;;
39994;SDS011;25686;51.908;10.418;2024-01-27T10:57:44;15.50;;;3.63;;
39994;SDS011;25686;51.908;10.418;2024-01-27T10:59:47;19.70;;;4.07;;
39994;SDS011;25686;51.908;10.418;2024-01-27T11:01:49;19.95;;;3.63;;
39994;SDS011;25686;51.908;10.418;2024-01-27T11:03:53;13.50;;;2.92;;
39994;SDS011;25686;51.908;10.418;2024-01-27T11:05:55;17.30;;;3.10;;
39994;SDS011;25686;51.908;10.418;2024-01-27T11:07:59;15.32;;;3.78;;
39994;SDS011;25686;51.908;10.418;2024-01-27T11:10:00;16.65;;;3.33;;
39994;SDS011;25686;51.908;10.418;2024-01-27T11:12:01;16.20;;;3.10;;
39994;SDS011;25686;51.908;10.418;2024-01-27T11:14:03;16.92;;;3.33;;
39994;SDS011;25686;51.908;10.418;2024-01-27T11:16:04;15.63;;;3.70;;
39994;SDS011;25686;51.908;10.418;2024-01-27T11:18:06;17.05;;;3.40;;
39994;SDS011;25686;51.908;10.418;2024-01-27T11:20:07;15.07;;;3.47;;
39994;SDS011;25686;51.908;10.418;2024-01-27T11:22:17;20.70;;;3.88;;
39994;SDS011;25686;51.908;10.418;2024-01-27T11:24:24;18.55;;;3.53;;
39994;SDS011;25686;51.908;10.418;2024-01-27T11:26:25;17.20;;;4.03;;
39994;SDS011;25686;51.908;10.418;2024-01-27T11:28:26;13.00;;;2.90;;
39994;SDS011;25686;51.908;10.418;2024-01-27T11:30:30;15.30;;;3.47;;
39994;SDS011;25686;51.908;10.418;2024-01-27T11:32:37;17.40;;;3.22;;
39994;SDS011;25686;51.908;10.418;2024-01-27T11:34:42;16.13;;;3.15;;
39994;SDS011;25686;51.908;10.418;2024-01-27T11:36:43;13.38;;;2.97;;
39994;SDS011;25686;51.908;10.418;2024-01-27T11:38:44;17.90;;;3.50;;
39994;SDS011;25686;51.908;10.418;2024-01-27T11:40:48;15.25;;;2.67;;
39994;SDS011;25686;51.908;10.418;2024-01-27T11:42:56;18.73;;;3.17;;
39994;SDS011;25686;51.908;10.418;2024-01-27T11:44:57;13.85;;;2.80;;
39994;SDS011;25686;51.908;10.418;2024-01-27T11:46:58;13.85;;;2.78;;
39994;SDS011;25686;51.908;10.418;2024-01-27T11:48:59;18.60;;;3.53;;